CheckWX is a tool to help pilots better visualize weather data.  It is not intended as a substitute for an official pre-flight weather briefing.

16:15:07 UTC

FADY METAR
De Aar Military Airport
De Aar, South Africa
Current

7 hours ago

FADY 260941Z 30004KT CAVOK 21/04 Q1026
Observed
May-26 @ 09:41 UTC
Wind
  • 300° at 4 KTS
Visibility
10,000+ meters
Flight Rules
VFR
Cloud Levels
  • Clear skies
Temperature
21°C / 70°F
Dewpoint
C / 39°F
Humidity
33%
Altimeter
30.3" Hg
Pressure
1025.92 hPa
Previous

7 hours ago

FADY 260846Z 24001KT CAVOK 19/04 Q1027
Observed
May-26 @ 08:46 UTC
Wind
  • 240° at 1 KTS
Visibility
10,000+ meters
Flight Rules
VFR
Cloud Levels
  • Clear skies
Temperature
19°C / 66°F
Dewpoint
C / 39°F
Humidity
37%
Altimeter
30.32" Hg
Pressure
1026.92 hPa
Previous

9 hours ago

FADY 260720Z 16005KT CAVOK 14/03 Q1027
Observed
May-26 @ 07:20 UTC
Wind
  • 160° at 5 KTS
Visibility
10,000+ meters
Flight Rules
VFR
Cloud Levels
  • Clear skies
Temperature
14°C / 57°F
Dewpoint
C / 37°F
Humidity
48%
Altimeter
30.32" Hg
Pressure
1026.92 hPa